Time;durP1;ratioP1;P1;durP2;ratioP2;P2;SDS_P1;SDS_P2;PMS_P1;PMS_P2;Temp;Humidity;BMP_temperature;BMP_pressure;BME280_temperature;BME280_humidity;BME280_pressure;Samples;Min_cycle;Max_cycle;Signal;HPM_P1;HPM_P2
2022/03/29 00:00:24;;;;;;;13.30;8.20;;;;;;;3.62;73.07;94471.72;5038884;28;20313;-61
2022/03/29 00:03:10;;;;;;;10.50;7.37;;;;;;;3.65;72.94;94484.38;5027993;28;20707;-62
2022/03/29 00:05:55;;;;;;;9.93;6.83;;;;;;;3.67;72.96;94479.31;5040510;28;20194;-62
2022/03/29 00:08:41;;;;;;;11.70;8.00;;;;;;;3.66;73.92;94482.44;5039901;28;20218;-61
2022/03/29 00:11:27;;;;;;;19.63;8.43;;;;;;;3.39;74.63;94469.19;5038701;28;20194;-62
2022/03/29 00:14:13;;;;;;;17.70;7.93;;;;;;;3.43;75.95;94463.69;5046359;28;20613;-62
2022/03/29 00:16:59;;;;;;;12.60;7.63;;;;;;;3.45;76.36;94472.13;5036965;28;20207;-62
2022/03/29 00:19:45;;;;;;;10.53;7.83;;;;;;;3.49;77.18;94470.13;5042128;28;20670;-62
2022/03/29 00:22:31;;;;;;;12.97;8.10;;;;;;;3.65;75.06;94462.00;5046423;28;20198;-62
2022/03/29 00:25:18;;;;;;;19.10;8.40;;;;;;;3.45;75.44;94470.22;5036636;28;20194;-63
2022/03/29 00:28:04;;;;;;;12.77;8.27;;;;;;;3.59;75.67;94450.97;5039478;28;20722;-62
2022/03/29 00:30:50;;;;;;;14.10;8.47;;;;;;;3.73;76.02;94444.47;5028002;28;20640;-62
2022/03/29 00:33:36;;;;;;;14.40;8.33;;;;;;;3.77;75.55;94447.81;5027524;28;20194;-62
2022/03/29 00:36:22;;;;;;;12.33;8.20;;;;;;;3.72;74.35;94437.53;5045454;28;20186;-62
2022/03/29 00:39:07;;;;;;;11.00;7.40;;;;;;;3.67;75.59;94428.00;5030472;28;20648;-62
2022/03/29 00:41:54;;;;;;;11.73;8.10;;;;;;;3.76;74.99;94440.91;5044422;28;20192;-62
2022/03/29 00:44:40;;;;;;;16.40;8.43;;;;;;;3.68;76.37;94461.19;5047811;28;20198;-62
2022/03/29 00:47:26;;;;;;;10.13;8.13;;;;;;;3.70;75.82;94439.91;5042996;28;20270;-62
2022/03/29 00:50:12;;;;;;;14.10;8.47;;;;;;;3.75;75.29;94435.94;5034816;28;20191;-62
2022/03/29 00:52:58;;;;;;;11.57;8.20;;;;;;;3.62;75.65;94439.31;5029161;28;20197;-62
2022/03/29 00:55:45;;;;;;;9.77;7.77;;;;;;;3.48;76.66;94428.09;5025088;28;20190;-62
2022/03/29 00:58:33;;;;;;;12.13;7.73;;;;;;;3.57;77.19;94437.13;5044849;28;20661;-66
2022/03/29 01:01:19;;;;;;;14.03;8.23;;;;;;;3.40;77.02;94432.16;5022336;28;20229;-65
2022/03/29 01:04:06;;;;;;;12.13;8.27;;;;;;;3.21;79.95;94431.06;5050262;28;20193;-66
2022/03/29 01:06:59;;;;;;;11.93;8.97;;;;;;;3.43;78.01;94420.50;5037371;28;20683;-66
2022/03/29 01:09:45;;;;;;;12.70;8.63;;;;;;;3.52;79.24;94418.75;5046371;28;20375;-66
2022/03/29 01:12:33;;;;;;;16.00;8.97;;;;;;;3.41;78.87;94422.91;5047906;28;20229;-66
2022/03/29 01:15:19;;;;;;;12.37;8.40;;;;;;;3.46;78.93;94425.81;5030027;28;20684;-66
2022/03/29 01:18:06;;;;;;;14.43;8.53;;;;;;;3.42;78.78;94416.31;5040530;28;20214;-66
2022/03/29 01:20:54;;;;;;;13.47;8.53;;;;;;;3.44;79.83;94411.25;5043115;28;20217;-67
2022/03/29 01:23:41;;;;;;;12.20;8.27;;;;;;;3.47;79.03;94400.38;5050159;28;20675;-66
2022/03/29 01:26:27;;;;;;;17.70;9.00;;;;;;;3.49;79.03;94403.41;5052103;28;20197;-66
2022/03/29 01:29:14;;;;;;;14.90;8.00;;;;;;;3.42;79.66;94397.41;5046300;28;20574;-66
2022/03/29 01:32:07;;;;;;;12.70;8.13;;;;;;;3.36;79.02;94399.13;5049895;28;20190;-66
2022/03/29 01:34:53;;;;;;;15.60;8.67;;;;;;;3.21;79.69;94393.28;5051587;28;20197;-66
2022/03/29 01:37:39;;;;;;;11.13;9.13;;;;;;;3.28;80.64;94382.34;5028055;28;20214;-66
2022/03/29 01:40:26;;;;;;;15.87;9.00;;;;;;;3.33;81.15;94381.81;5037967;28;20219;-66
2022/03/29 01:43:12;;;;;;;11.50;8.07;;;;;;;3.25;80.36;94383.19;5047445;28;20285;-66
2022/03/29 01:45:59;;;;;;;11.23;8.57;;;;;;;3.24;80.53;94375.50;5051919;28;20190;-66
2022/03/29 01:48:44;;;;;;;11.70;8.00;;;;;;;3.17;82.25;94373.72;5040777;28;20224;-66
2022/03/29 01:51:31;;;;;;;14.10;8.20;;;;;;;3.07;81.16;94357.81;5041183;28;20218;-66
2022/03/29 01:54:16;;;;;;;13.63;8.83;;;;;;;2.98;82.21;94363.03;5050453;28;20634;-66
2022/03/29 01:57:02;;;;;;;16.80;7.87;;;;;;;2.89;83.71;94362.84;5048392;28;20247;-66
2022/03/29 02:03:05;;;;;;;10.47;7.77;;;;;;;2.98;84.41;94354.94;5032619;28;20195;-66
2022/03/29 02:05:52;;;;;;;13.60;9.00;;;;;;;2.97;83.31;94356.13;5036537;28;20278;-66
2022/03/29 02:08:38;;;;;;;15.40;8.40;;;;;;;2.93;84.25;94344.66;5049134;28;20271;-66
2022/03/29 02:11:24;;;;;;;12.00;8.73;;;;;;;3.20;83.69;94337.81;5041310;28;20230;-66
2022/03/29 02:14:10;;;;;;;11.17;8.63;;;;;;;3.13;83.08;94346.09;5051097;28;20199;-65
2022/03/29 02:16:56;;;;;;;14.57;8.00;;;;;;;2.90;83.64;94332.75;5050764;28;20561;-66
2022/03/29 02:19:42;;;;;;;13.63;9.07;;;;;;;2.84;84.94;94336.41;5030269;28;20210;-66
2022/03/29 02:22:28;;;;;;;15.13;8.63;;;;;;;2.79;84.60;94320.72;5048940;28;20281;-66
2022/03/29 02:25:13;;;;;;;15.03;9.20;;;;;;;2.70;85.50;94318.59;5048808;28;20189;-66
2022/03/29 02:27:59;;;;;;;13.30;9.13;;;;;;;2.70;85.69;94325.97;5036261;28;20206;-66
2022/03/29 02:30:46;;;;;;;13.27;9.03;;;;;;;2.73;86.96;94314.31;5031460;28;20186;-66
2022/03/29 02:33:31;;;;;;;13.97;9.03;;;;;;;2.63;88.17;94302.59;5033831;28;20194;-66
2022/03/29 02:36:17;;;;;;;12.43;8.90;;;;;;;2.43;87.54;94313.47;5034350;28;20190;-66
2022/03/29 02:39:03;;;;;;;12.97;8.50;;;;;;;2.53;90.55;94310.94;5019432;28;20296;-66
2022/03/29 02:41:50;;;;;;;14.87;9.93;;;;;;;2.54;90.21;94312.47;5035979;28;20194;-66
2022/03/29 02:44:36;;;;;;;15.87;8.47;;;;;;;2.65;88.71;94302.94;5047009;28;20209;-66
2022/03/29 02:47:22;;;;;;;12.40;9.03;;;;;;;2.57;88.61;94306.97;5050796;28;20654;-66
2022/03/29 02:50:09;;;;;;;21.33;10.10;;;;;;;2.47;89.16;94310.69;5041603;28;20183;-66
2022/03/29 02:52:57;;;;;;;15.27;9.93;;;;;;;2.28;91.38;94306.88;5031138;28;20223;-66
2022/03/29 02:55:43;;;;;;;12.13;8.13;;;;;;;2.61;91.02;94315.75;5032570;28;20206;-65
2022/03/29 02:58:29;;;;;;;13.27;8.90;;;;;;;2.71;89.92;94303.19;5036067;28;20248;-66
2022/03/29 03:01:15;;;;;;;17.17;9.13;;;;;;;2.60;89.77;94305.41;5033038;28;20215;-66
2022/03/29 03:04:01;;;;;;;12.37;8.33;;;;;;;2.59;88.59;94298.47;5043967;28;20206;-66
2022/03/29 03:06:46;;;;;;;12.50;8.77;;;;;;;2.53;90.08;94294.78;5047529;28;20694;-66
2022/03/29 03:09:32;;;;;;;13.70;8.97;;;;;;;2.28;91.78;94295.31;5032323;28;20214;-66
2022/03/29 03:12:18;;;;;;;14.63;9.73;;;;;;;2.36;92.32;94297.44;5049847;28;20650;-66
2022/03/29 03:15:05;;;;;;;13.03;9.37;;;;;;;2.57;91.19;94296.22;5033141;28;20190;-66
2022/03/29 03:17:53;;;;;;;15.10;9.67;;;;;;;2.52;91.86;94291.31;5036211;28;20250;-66
2022/03/29 03:20:39;;;;;;;13.27;9.63;;;;;;;2.58;92.31;94284.22;5046342;28;20218;-66
2022/03/29 03:23:25;;;;;;;17.77;10.17;;;;;;;2.51;91.40;94286.34;5034359;28;20671;-65
2022/03/29 03:26:11;;;;;;;15.17;9.03;;;;;;;2.46;91.98;94288.34;5048050;28;20197;-66
2022/03/29 03:28:57;;;;;;;14.20;9.87;;;;;;;2.54;90.56;94280.88;5046260;28;20297;-66
2022/03/29 03:31:43;;;;;;;12.30;8.87;;;;;;;2.49;90.94;94292.16;5027018;28;20269;-66
2022/03/29 03:34:29;;;;;;;15.53;9.50;;;;;;;2.44;92.61;94277.22;5030745;28;20194;-65
2022/03/29 03:37:15;;;;;;;17.00;9.30;;;;;;;2.31;93.85;94271.00;5040406;28;20596;-64
2022/03/29 03:40:05;;;;;;;14.67;9.10;;;;;;;2.44;95.14;94266.47;5038828;28;20264;-64
2022/03/29 03:42:51;;;;;;;12.40;9.23;;;;;;;2.41;92.24;94263.84;5039416;28;20283;-64
2022/03/29 03:45:37;;;;;;;16.47;9.73;;;;;;;2.47;92.25;94262.94;5028380;28;20275;-64
2022/03/29 03:48:23;;;;;;;14.27;9.07;;;;;;;2.44;92.87;94260.34;5047036;28;20218;-65
2022/03/29 03:51:09;;;;;;;12.57;9.17;;;;;;;2.47;93.15;94254.84;5043893;28;20182;-65
2022/03/29 03:53:55;;;;;;;17.97;9.50;;;;;;;2.54;92.67;94255.84;5020850;28;20254;-65
2022/03/29 03:56:40;;;;;;;14.60;10.27;;;;;;;2.38;94.07;94253.91;5046551;28;20331;-66
2022/03/29 03:59:26;;;;;;;14.83;9.73;;;;;;;2.40;94.27;94249.63;5038425;28;20211;-64
2022/03/29 04:02:12;;;;;;;13.33;9.30;;;;;;;2.28;94.01;94247.59;5040810;28;20277;-63
2022/03/29 04:04:58;;;;;;;13.93;9.07;;;;;;;2.29;95.59;94246.41;5021209;28;20221;-63
2022/03/29 04:07:44;;;;;;;12.93;9.00;;;;;;;2.19;95.18;94241.25;5047506;28;20340;-64
2022/03/29 04:10:31;;;;;;;14.43;9.43;;;;;;;2.43;95.75;94238.00;5037542;28;20195;-63
2022/03/29 04:13:17;;;;;;;13.10;9.47;;;;;;;2.53;95.90;94236.22;5047456;28;20201;-63
2022/03/29 04:16:03;;;;;;;15.77;9.23;;;;;;;2.51;95.33;94227.84;5048754;28;20256;-64
2022/03/29 04:18:49;;;;;;;15.37;9.43;;;;;;;2.44;95.52;94222.59;5044075;28;20218;-64
2022/03/29 04:21:35;;;;;;;15.70;9.73;;;;;;;2.68;95.01;94212.41;5040521;28;20637;-64
2022/03/29 04:24:21;;;;;;;15.20;9.67;;;;;;;2.60;94.72;94217.19;5014538;28;20259;-65
2022/03/29 04:27:07;;;;;;;19.60;9.70;;;;;;;2.39;94.51;94206.94;5034054;28;20565;-65
2022/03/29 04:29:52;;;;;;;20.07;10.33;;;;;;;2.44;95.53;94211.84;5033000;28;20268;-65
2022/03/29 04:32:39;;;;;;;13.87;9.40;;;;;;;2.54;95.36;94218.13;5037395;28;20194;-65
2022/03/29 04:35:25;;;;;;;15.70;10.47;;;;;;;2.48;95.63;94207.84;5034167;28;20209;-65
2022/03/29 04:38:10;;;;;;;15.60;10.00;;;;;;;2.57;97.71;94203.81;5040066;28;20305;-65
2022/03/29 04:40:57;;;;;;;12.13;8.63;;;;;;;2.51;95.79;94208.19;5042518;28;20573;-66
2022/03/29 04:43:43;;;;;;;13.93;9.87;;;;;;;2.53;96.79;94198.50;5046556;28;20209;-65
2022/03/29 04:46:28;;;;;;;16.87;10.37;;;;;;;2.68;96.81;94193.53;5031478;28;20190;-64
2022/03/29 04:49:14;;;;;;;17.73;9.67;;;;;;;2.60;95.00;94205.69;5027940;28;20226;-66
2022/03/29 04:52:00;;;;;;;15.40;9.80;;;;;;;2.80;96.93;94200.94;5037905;28;20211;-66
2022/03/29 04:54:46;;;;;;;14.90;9.70;;;;;;;2.64;97.18;94190.91;5019320;28;20203;-66
2022/03/29 04:57:32;;;;;;;16.43;10.23;;;;;;;2.54;96.11;94200.03;5028094;28;20257;-65
2022/03/29 05:00:20;;;;;;;15.77;9.47;;;;;;;2.85;98.35;94198.44;5041338;28;20248;-66
2022/03/29 05:03:06;;;;;;;14.37;9.50;;;;;;;2.64;97.85;94192.84;5041822;28;20208;-66
2022/03/29 05:05:53;;;;;;;15.93;10.17;;;;;;;2.55;99.80;94190.00;5047318;28;20217;-65
2022/03/29 05:08:39;;;;;;;18.23;11.03;;;;;;;2.58;100.00;94189.16;5042470;28;20276;-66
2022/03/29 05:11:24;;;;;;;17.73;9.93;;;;;;;2.49;99.84;94182.41;5032956;28;20206;-65
2022/03/29 05:14:10;;;;;;;17.37;10.83;;;;;;;2.76;100.00;94178.69;5040161;28;20285;-66
2022/03/29 05:16:57;;;;;;;16.70;10.20;;;;;;;2.54;100.00;94178.47;5048526;28;20267;-65
2022/03/29 05:19:42;;;;;;;13.93;10.03;;;;;;;2.56;100.00;94173.41;5047243;28;20186;-65
2022/03/29 05:22:28;;;;;;;17.07;9.93;;;;;;;2.83;100.00;94179.28;5032636;28;20194;-66
2022/03/29 05:25:15;;;;;;;20.97;9.73;;;;;;;2.64;100.00;94166.66;5042622;28;20194;-66
2022/03/29 05:28:02;;;;;;;16.90;10.23;;;;;;;2.74;100.00;94164.88;5026838;28;20226;-65
2022/03/29 05:30:49;;;;;;;15.07;10.40;;;;;;;2.95;100.00;94167.00;5038832;28;20188;-66
2022/03/29 05:33:35;;;;;;;12.90;9.50;;;;;;;2.73;100.00;94180.31;5045119;28;20205;-65
2022/03/29 05:36:20;;;;;;;16.83;10.63;;;;;;;2.96;100.00;94171.97;5030806;28;20233;-65
2022/03/29 05:39:06;;;;;;;15.47;10.40;;;;;;;2.86;100.00;94172.25;5043156;28;20240;-66
2022/03/29 05:41:52;;;;;;;16.43;9.63;;;;;;;3.02;100.00;94164.13;5039396;28;20360;-65
2022/03/29 05:44:38;;;;;;;19.00;10.20;;;;;;;3.08;100.00;94176.66;5029210;28;20224;-65
2022/03/29 05:50:29;;;;;;;14.27;10.00;;;;;;;3.06;98.98;94164.78;5048189;28;20214;-66
2022/03/29 05:53:15;;;;;;;22.83;10.43;;;;;;;2.96;100.00;94174.69;5036197;28;20197;-65
2022/03/29 05:56:01;;;;;;;18.53;10.40;;;;;;;3.16;98.80;94167.19;5049679;28;20259;-65
2022/03/29 05:58:46;;;;;;;16.73;10.83;;;;;;;3.09;98.94;94170.06;5038755;28;20373;-65
2022/03/29 06:01:32;;;;;;;14.10;9.37;;;;;;;3.26;100.00;94174.22;5038605;28;20222;-65
2022/03/29 06:04:22;;;;;;;15.57;9.70;;;;;;;3.49;97.68;94168.56;5033592;28;21665;-66
2022/03/29 06:07:08;;;;;;;18.73;11.63;;;;;;;3.36;98.62;94162.38;5047387;28;20194;-66
2022/03/29 06:09:54;;;;;;;17.00;9.87;;;;;;;3.60;96.66;94182.50;5039063;28;20213;-65
2022/03/29 06:12:44;;;;;;;15.50;10.97;;;;;;;3.90;95.76;94173.16;5035351;28;20187;-66
2022/03/29 06:15:30;;;;;;;23.00;10.00;;;;;;;4.02;95.25;94182.44;5036006;28;20234;-65
2022/03/29 06:18:16;;;;;;;13.30;9.60;;;;;;;4.20;94.37;94179.94;5028724;28;20241;-66
2022/03/29 06:21:02;;;;;;;15.73;10.50;;;;;;;4.43;93.34;94177.66;5044711;28;20214;-66
2022/03/29 06:23:48;;;;;;;18.37;10.27;;;;;;;4.45;91.57;94180.69;5037026;28;20198;-66
2022/03/29 06:26:39;;;;;;;23.13;10.50;;;;;;;4.71;92.07;94192.97;5050910;28;20224;-66
2022/03/29 06:29:24;;;;;;;15.43;10.23;;;;;;;4.65;90.43;94192.00;5040805;28;20272;-66
2022/03/29 06:32:10;;;;;;;14.13;10.67;;;;;;;4.83;89.81;94177.88;5037032;28;20270;-65
2022/03/29 06:34:56;;;;;;;16.80;10.03;;;;;;;5.01;89.05;94183.44;5045087;28;20547;-65
2022/03/29 06:37:42;;;;;;;19.30;10.20;;;;;;;5.18;88.54;94189.44;5038996;28;20222;-66
2022/03/29 06:40:29;;;;;;;22.30;10.83;;;;;;;5.39;87.32;94186.75;5048495;28;20246;-66
2022/03/29 06:43:15;;;;;;;18.57;10.83;;;;;;;5.40;86.78;94182.06;5048620;28;20190;-66
2022/03/29 06:46:02;;;;;;;20.30;10.57;;;;;;;5.63;86.75;94181.63;5049882;28;20198;-66
2022/03/29 06:48:48;;;;;;;24.33;11.37;;;;;;;5.81;87.54;94185.22;5042265;28;20335;-65
2022/03/29 06:51:35;;;;;;;37.67;13.07;;;;;;;6.16;86.51;94182.38;5031981;28;20198;-66
2022/03/29 06:54:21;;;;;;;25.13;12.63;;;;;;;6.33;86.22;94189.09;5050649;28;20198;-66
2022/03/29 06:57:08;;;;;;;20.37;12.47;;;;;;;6.43;86.50;94177.06;5050110;28;20290;-66
2022/03/29 06:59:55;;;;;;;33.40;12.60;;;;;;;6.61;88.16;94175.16;5037029;28;20332;-66
2022/03/29 07:02:40;;;;;;;27.00;11.40;;;;;;;6.78;89.09;94165.53;5051002;28;20338;-65
2022/03/29 07:05:27;;;;;;;26.97;11.73;;;;;;;6.93;86.12;94168.41;5049101;28;20258;-66
2022/03/29 07:08:16;;;;;;;26.43;11.43;;;;;;;7.23;86.02;94170.22;5039123;28;20332;-65
2022/03/29 07:11:19;;;;;;;18.07;11.03;;;;;;;7.38;82.60;94176.56;5049080;28;20656;-66
2022/03/29 07:14:07;;;;;;;22.87;12.03;;;;;;;7.76;81.97;94165.16;5048893;28;20213;-66
2022/03/29 07:16:53;;;;;;;29.40;10.90;;;;;;;8.05;82.21;94168.88;5049480;28;20202;-66
2022/03/29 07:19:39;;;;;;;26.27;11.73;;;;;;;8.31;82.32;94155.66;5039812;28;20583;-66
2022/03/29 07:22:25;;;;;;;14.17;9.97;;;;;;;8.24;81.96;94151.31;5036909;28;20194;-66
2022/03/29 07:25:13;;;;;;;15.00;10.10;;;;;;;8.33;84.10;94156.69;5028548;28;20214;-66
2022/03/29 07:28:00;;;;;;;14.23;9.70;;;;;;;8.31;84.26;94166.53;5043968;28;20268;-66
2022/03/29 07:30:46;;;;;;;17.53;9.70;;;;;;;8.46;84.03;94162.69;5015420;28;20198;-66
2022/03/29 07:33:32;;;;;;;17.27;9.53;;;;;;;8.42;83.29;94148.50;5037190;28;20237;-66
2022/03/29 07:36:18;;;;;;;22.03;10.40;;;;;;;8.75;77.76;94164.81;5025302;28;20712;-66
2022/03/29 07:39:04;;;;;;;42.13;10.73;;;;;;;8.87;78.83;94161.09;5036727;28;20679;-66
2022/03/29 07:41:50;;;;;;;20.40;8.90;;;;;;;8.94;73.97;94154.53;5047424;28;20682;-66
2022/03/29 07:44:36;;;;;;;22.13;8.90;;;;;;;9.07;71.83;94163.22;5047321;28;20190;-66
2022/03/29 07:47:21;;;;;;;28.00;10.20;;;;;;;9.21;71.67;94157.06;5031669;28;20198;-66
2022/03/29 07:50:09;;;;;;;18.37;8.63;;;;;;;9.31;66.03;94163.94;5040074;28;20257;-66
2022/03/29 07:52:57;;;;;;;33.97;9.63;;;;;;;9.39;65.04;94156.91;5049300;28;20191;-66
2022/03/29 07:55:43;;;;;;;12.33;8.67;;;;;;;9.33;64.46;94147.91;5047708;28;20214;-65
2022/03/29 07:58:30;;;;;;;13.83;8.87;;;;;;;9.45;66.10;94152.34;5023931;28;20226;-66
2022/03/29 08:01:16;;;;;;;19.73;9.07;;;;;;;9.50;67.23;94148.97;5050262;28;20714;-66
2022/03/29 08:04:02;;;;;;;13.37;8.80;;;;;;;9.59;65.49;94148.84;5049985;28;20198;-66
2022/03/29 08:06:48;;;;;;;13.77;8.20;;;;;;;9.62;66.31;94147.94;5026892;28;20194;-66
2022/03/29 08:09:34;;;;;;;14.57;8.90;;;;;;;9.92;65.01;94151.41;5047296;28;20760;-66
2022/03/29 08:12:20;;;;;;;18.43;9.00;;;;;;;10.05;63.54;94141.72;5043254;28;20191;-67
2022/03/29 08:15:08;;;;;;;17.30;8.40;;;;;;;10.33;61.65;94145.66;5049166;28;20186;-66
2022/03/29 08:17:55;;;;;;;15.37;8.13;;;;;;;10.41;59.10;94140.56;5031355;28;20226;-65
2022/03/29 08:20:41;;;;;;;14.03;7.93;;;;;;;10.63;56.19;94149.06;5048600;28;20287;-66
2022/03/29 08:23:27;;;;;;;15.80;7.73;;;;;;;10.76;57.01;94144.03;5047989;28;20270;-66
2022/03/29 08:26:13;;;;;;;10.43;7.30;;;;;;;10.83;57.61;94147.13;5033223;28;20797;-66
2022/03/29 08:28:58;;;;;;;12.67;7.50;;;;;;;10.89;55.01;94136.28;5040313;28;20210;-65
2022/03/29 08:31:47;;;;;;;12.67;8.07;;;;;;;11.15;53.93;94139.06;5026757;28;20826;-66
2022/03/29 08:34:33;;;;;;;15.10;7.97;;;;;;;11.32;51.87;94124.34;5030445;28;20195;-66
2022/03/29 08:37:19;;;;;;;10.37;7.73;;;;;;;11.65;51.17;94137.66;5016074;28;20277;-66
2022/03/29 08:40:17;;;;;;;13.03;8.00;;;;;;;11.60;50.46;94130.88;5040160;28;20215;-66
2022/03/29 08:43:05;;;;;;;12.50;7.40;;;;;;;11.83;49.31;94134.59;5014136;28;20203;-66
2022/03/29 08:45:51;;;;;;;16.67;7.57;;;;;;;12.01;49.28;94126.06;5044679;28;20309;-66
2022/03/29 08:48:37;;;;;;;11.87;7.37;;;;;;;12.27;50.41;94115.06;5040351;28;20564;-66
2022/03/29 08:51:23;;;;;;;12.67;8.37;;;;;;;12.28;50.27;94117.31;5047330;28;20668;-66
2022/03/29 08:54:09;;;;;;;18.03;8.07;;;;;;;12.36;49.61;94114.88;5047797;28;20190;-66
2022/03/29 08:56:55;;;;;;;12.17;8.37;;;;;;;12.39;47.71;94116.66;5045592;28;20221;-66
2022/03/29 08:59:42;;;;;;;13.00;7.83;;;;;;;12.28;47.73;94113.81;5046029;28;20284;-66
2022/03/29 09:02:33;;;;;;;12.50;8.40;;;;;;;12.35;46.29;94113.38;5048419;28;20616;-66
2022/03/29 09:05:26;;;;;;;16.10;9.27;;;;;;;12.51;46.70;94110.00;5042748;28;20773;-66
2022/03/29 09:08:13;;;;;;;12.00;7.57;;;;;;;12.41;45.19;94108.69;5015996;28;20215;-66
2022/03/29 09:11:02;;;;;;;17.63;8.80;;;;;;;12.52;45.18;94106.78;5048043;28;20194;-66
2022/03/29 09:14:03;;;;;;;22.90;9.93;;;;;;;12.35;46.98;94105.16;5049088;28;20194;-66
2022/03/29 09:16:51;;;;;;;17.93;8.77;;;;;;;12.42;47.67;94105.44;5048423;28;20301;-67
2022/03/29 09:19:48;;;;;;;16.83;8.57;;;;;;;12.67;47.37;94104.63;5043656;28;20703;-67
2022/03/29 09:22:46;;;;;;;24.47;8.80;;;;;;;12.60;47.70;94102.34;5033051;28;20651;-66
2022/03/29 09:25:37;;;;;;;21.87;8.57;;;;;;;13.01;47.84;94100.06;5031667;28;20731;-66
2022/03/29 09:28:23;;;;;;;25.90;8.33;;;;;;;13.01;47.94;94091.84;5038362;28;20233;-66
2022/03/29 09:31:20;;;;;;;56.50;11.53;;;;;;;13.72;44.13;94101.53;5029702;28;20186;-66
2022/03/29 09:34:16;;;;;;;16.80;9.33;;;;;;;14.34;42.46;94088.09;5034078;28;20198;-66
2022/03/29 09:37:03;;;;;;;17.47;10.07;;;;;;;14.46;41.00;94086.84;5028044;28;20198;-66
2022/03/29 09:39:50;;;;;;;12.77;8.70;;;;;;;14.76;40.96;94081.56;5044967;28;20198;-64
2022/03/29 09:43:08;;;;;;;12.73;9.33;;;;;;;15.21;40.21;94082.13;5032356;28;20520;-65
2022/03/29 09:45:58;;;;;;;19.03;10.50;;;;;;;15.16;37.69;94074.66;5032445;28;20278;-64
2022/03/29 09:48:44;;;;;;;13.37;9.40;;;;;;;15.24;37.65;94070.09;5028207;28;20241;-64
2022/03/29 09:51:30;;;;;;;16.63;10.07;;;;;;;15.32;37.16;94068.34;5052293;28;20272;-64
2022/03/29 09:54:16;;;;;;;17.47;10.23;;;;;;;15.48;36.60;94067.50;5049094;28;20225;-65
2022/03/29 09:57:03;;;;;;;22.50;11.37;;;;;;;15.26;36.06;94062.09;5016572;28;20679;-64
2022/03/29 09:59:50;;;;;;;20.80;11.30;;;;;;;15.56;36.00;94068.50;5037737;28;20311;-64
2022/03/29 10:02:40;;;;;;;18.43;11.53;;;;;;;15.57;35.21;94054.22;5035497;28;20226;-64
2022/03/29 10:05:28;;;;;;;14.30;10.87;;;;;;;15.56;35.83;94051.97;5047318;28;20194;-64
2022/03/29 10:11:22;;;;;;;16.37;10.30;;;;;;;15.50;35.18;94051.25;5043128;28;20187;-64
2022/03/29 10:14:12;;;;;;;16.37;11.13;;;;;;;15.47;35.89;94052.28;5016943;28;20282;-64
2022/03/29 10:16:58;;;;;;;16.43;11.20;;;;;;;15.44;36.08;94048.53;5037848;28;20190;-64
2022/03/29 10:19:44;;;;;;;20.77;10.73;;;;;;;15.53;36.12;94039.97;5041932;28;20195;-65
2022/03/29 10:22:31;;;;;;;14.93;10.47;;;;;;;15.51;36.22;94034.22;5019067;28;20191;-65
2022/03/29 10:25:17;;;;;;;15.00;10.83;;;;;;;15.46;36.02;94037.75;5022815;28;20197;-65
2022/03/29 10:28:05;;;;;;;23.03;11.13;;;;;;;15.56;35.94;94035.47;5038894;28;20207;-65
2022/03/29 10:30:50;;;;;;;17.40;10.50;;;;;;;15.47;35.47;94039.28;5039693;28;20182;-65
2022/03/29 10:33:36;;;;;;;20.33;11.07;;;;;;;15.61;35.70;94037.44;5036326;28;20202;-65
2022/03/29 10:36:22;;;;;;;20.47;9.97;;;;;;;15.60;36.39;94033.16;5027712;28;20195;-65
2022/03/29 10:39:10;;;;;;;20.93;11.43;;;;;;;15.71;35.56;94033.09;5041801;28;20295;-65
2022/03/29 10:41:55;;;;;;;14.90;10.30;;;;;;;15.74;36.27;94029.31;5035916;28;20667;-65
2022/03/29 10:44:59;;;;;;;16.17;10.33;;;;;;;15.68;35.84;94034.09;5045487;28;20205;-65
2022/03/29 10:47:48;;;;;;;13.87;10.07;;;;;;;15.91;35.56;94031.94;5040253;28;20790;-65
2022/03/29 10:50:46;;;;;;;16.00;10.47;;;;;;;15.73;35.24;94028.56;5041867;28;20320;-65
2022/03/29 10:53:47;;;;;;;15.53;10.23;;;;;;;16.04;34.99;94024.56;5033647;28;20190;-65
2022/03/29 10:56:33;;;;;;;15.83;11.07;;;;;;;16.02;35.03;94018.81;5042289;28;20285;-65
2022/03/29 10:59:19;;;;;;;19.23;10.70;;;;;;;16.19;34.49;94015.94;5049482;28;20214;-65
2022/03/29 11:02:08;;;;;;;16.43;9.83;;;;;;;16.21;34.38;94010.66;5026002;28;20227;-65
2022/03/29 11:05:05;;;;;;;13.90;9.80;;;;;;;16.11;33.95;94009.50;5017728;28;20190;-65
2022/03/29 11:07:51;;;;;;;11.97;9.67;;;;;;;15.85;33.44;94012.72;5042040;28;20269;-65
2022/03/29 11:10:42;;;;;;;23.50;9.83;;;;;;;15.97;33.26;93999.63;5035747;28;20242;-65
2022/03/29 11:13:37;;;;;;;16.37;10.73;;;;;;;16.02;33.17;93996.78;5048565;28;20202;-65
2022/03/29 11:16:28;;;;;;;15.10;9.53;;;;;;;16.01;34.03;93998.06;5050337;28;20190;-65
2022/03/29 11:19:40;;;;;;;18.30;10.50;;;;;;;15.91;33.85;93996.91;5045022;28;20309;-65
2022/03/29 11:22:29;;;;;;;12.83;9.07;;;;;;;16.26;33.94;93987.81;5033139;28;20641;-65
2022/03/29 11:25:20;;;;;;;13.00;10.33;;;;;;;16.57;34.10;93993.53;5033142;28;20659;-65
2022/03/29 11:28:06;;;;;;;13.17;9.57;;;;;;;16.39;33.25;93991.41;5028504;28;20276;-65
2022/03/29 11:30:54;;;;;;;17.67;10.00;;;;;;;16.51;33.85;93986.59;5048619;28;20634;-65
2022/03/29 11:33:43;;;;;;;14.77;10.67;;;;;;;16.43;33.89;93982.88;5039840;28;20202;-65
2022/03/29 11:36:29;;;;;;;13.87;9.93;;;;;;;16.38;34.61;93980.91;5023395;28;20278;-65
2022/03/29 11:39:23;;;;;;;13.83;9.77;;;;;;;16.23;33.87;93977.81;5042169;28;20636;-65
2022/03/29 11:42:09;;;;;;;18.50;9.93;;;;;;;16.28;33.69;93972.25;5041667;28;20230;-65
2022/03/29 11:44:55;;;;;;;17.40;9.37;;;;;;;16.46;33.59;93965.34;5047104;28;20202;-65
2022/03/29 11:47:52;;;;;;;14.47;9.10;;;;;;;16.57;33.74;93960.44;5046327;28;20304;-65
2022/03/29 11:50:55;;;;;;;14.93;9.00;;;;;;;16.78;33.69;93955.94;5045436;28;20698;-66
2022/03/29 11:53:42;;;;;;;16.50;9.93;;;;;;;16.44;33.16;93952.03;5047702;28;20688;-65
2022/03/29 11:56:27;;;;;;;18.20;9.43;;;;;;;16.52;33.62;93947.47;5039457;28;20187;-65
2022/03/29 11:59:17;;;;;;;14.63;9.83;;;;;;;16.77;34.19;93942.66;5048945;28;20400;-65
2022/03/29 12:02:04;;;;;;;12.40;9.67;;;;;;;16.61;33.50;93947.09;5033655;28;20214;-65
2022/03/29 12:04:51;;;;;;;16.93;10.50;;;;;;;16.50;33.34;93938.97;5037831;28;20202;-65
2022/03/29 12:07:42;;;;;;;13.23;9.90;;;;;;;16.60;34.42;93939.34;5041000;28;20852;-67
2022/03/29 12:10:29;;;;;;;16.83;11.00;;;;;;;16.65;34.46;93933.03;5026273;28;20239;-67
2022/03/29 12:13:16;;;;;;;18.20;10.03;;;;;;;16.62;33.87;93921.03;5048895;28;20252;-67
2022/03/29 12:16:23;;;;;;;15.13;10.07;;;;;;;16.75;34.93;93918.38;5050193;28;20190;-67
2022/03/29 12:19:11;;;;;;;14.73;10.00;;;;;;;16.71;34.46;93917.19;5047084;28;20657;-67
2022/03/29 12:22:06;;;;;;;16.07;9.97;;;;;;;16.81;33.98;93910.78;5035337;28;20207;-67
2022/03/29 12:24:55;;;;;;;18.63;9.70;;;;;;;16.55;33.40;93907.84;5030507;28;20191;-67
2022/03/29 12:27:41;;;;;;;15.83;9.50;;;;;;;16.69;33.74;93912.19;5047530;28;20317;-67
2022/03/29 12:30:27;;;;;;;12.87;9.23;;;;;;;17.00;33.73;93902.50;5039450;28;20218;-67
2022/03/29 12:33:14;;;;;;;15.53;9.93;;;;;;;16.98;33.83;93890.47;5032664;28;20255;-67
2022/03/29 12:36:11;;;;;;;17.37;10.20;;;;;;;16.92;33.49;93885.03;5021811;28;20191;-67
2022/03/29 12:39:04;;;;;;;14.00;10.30;;;;;;;17.29;34.13;93890.50;5022359;28;20247;-67
2022/03/29 12:41:55;;;;;;;14.67;10.70;;;;;;;17.37;33.22;93880.38;5047470;28;20288;-67
2022/03/29 12:44:46;;;;;;;16.63;10.23;;;;;;;17.52;33.56;93877.88;5043561;28;20367;-67
2022/03/29 12:47:32;;;;;;;16.97;10.10;;;;;;;17.51;33.17;93865.34;5033911;28;20234;-67
2022/03/29 12:50:18;;;;;;;22.00;10.73;;;;;;;17.49;32.19;93865.16;5027497;28;20244;-67
2022/03/29 12:53:06;;;;;;;14.33;9.63;;;;;;;17.34;32.30;93856.56;5041981;28;20610;-67
2022/03/29 12:55:55;;;;;;;18.00;10.67;;;;;;;17.52;31.74;93861.31;5040554;28;20199;-67
2022/03/29 12:58:41;;;;;;;18.73;9.17;;;;;;;17.49;30.18;93843.06;5019373;28;20210;-67
2022/03/29 13:01:30;;;;;;;18.43;8.80;;;;;;;17.19;29.04;93850.06;5046361;28;20218;-67
2022/03/29 13:04:16;;;;;;;18.93;8.30;;;;;;;17.21;29.08;93853.75;5041313;28;20612;-67
2022/03/29 13:07:02;;;;;;;14.77;11.70;;;;;;;17.22;29.98;93832.44;5039634;28;20278;-67
2022/03/29 13:10:00;;;;;;;18.47;11.97;;;;;;;16.87;29.00;93823.19;5026429;28;20202;-67